OEBA/ABT METAR and TAF weather

Enter ICAO airport designator
Station Type Date Time Source
OEBA METAR 2019/10/23 02:00 UTC NOAA

OEBA 230200Z 00000KT CAVOK 18/15 Q1020 NOSIG


Station Type Date Time Source
OEBA Decoded METAR 2019/10/23 02:00 UTC NOAA

Al Baha, Saudi Arabia (OEBA) 20-18N 041-38E 1662M
Oct 22, 2019 - 10:00 PM EDT / 2019.10.23 0200 UTC
Wind: Calm:0
Visibility: greater than 7 mile(s):0
Temperature: 64 F (18 C)
Dew Point: 59 F (15 C)
Relative Humidity: 82%
Pressure (altimeter): 30.12 in. Hg (1020 hPa)
ob: OEBA 230200Z 00000KT CAVOK 18/15 Q1020 NOSIG
cycle: 2

Station Type Date Time Source
OEBA TAF 2019/10/22 12:03 UTC NOAA

TAF OEBA 221100Z 2212/2318 20012KT 9999 FEW030
TEMPO 2212/2218 6000 FEW025CB SCT030
BECMG 2218/2220 VRB03KT

Example: see airport list